This is the latest recevied weather packets stored in our database for station/object EA6AMI-5. If no packets are shown the sender has not sent any weather packets the latest 10 day(s).
| Time | Temp. | Humidity | Pressure | Rain* | Wind** | Luminosity | Snow |
|---|---|---|---|---|---|---|---|
| 1777907343 | 18.89° C | 82% | 1012.5 hPa | 0 mm | - | 156 W/m² | - |
| 1777906804 | 19.44° C | 80% | 1012.3 hPa | 0 mm | - | 130 W/m² | - |
| 1777906444 | 19.44° C | 80% | 1012.4 hPa | 0 mm | - | 177 W/m² | - |
| 1777905903 | 19.44° C | 79% | 1012.5 hPa | 0 mm | - | 165 W/m² | - |
| 1777905363 | 18.89° C | 82% | 1012.5 hPa | 0 mm | - | 429 W/m² | - |
| 1777904823 | 19.44° C | 81% | 1012.5 hPa | 0 mm | - | 164 W/m² | - |
| 1777904283 | 18.89° C | 81% | 1012.6 hPa | 0 mm | - | 232 W/m² | - |
| 1777903743 | 18.33° C | 83% | 1012.7 hPa | 0 mm | - | 725 W/m² | - |
| 1777903203 | 18.33° C | 84% | 1012.8 hPa | 0 mm | - | 208 W/m² | - |
| 1777902843 | 17.78° C | 86% | 1013 hPa | 0 mm | - | 467 W/m² | - |
| 1777902303 | 17.78° C | 87% | 1013.1 hPa | 0 mm | - | 215 W/m² | - |
| 1777901763 | 17.78° C | 87% | 1013.3 hPa | 0 mm | - | 119 W/m² | - |
| 1777901223 | 18.33° C | 87% | 1013.4 hPa | 0 mm | - | 58 W/m² | - |
| 1777900684 | 17.78° C | 88% | 1013.4 hPa | 0 mm | - | 255 W/m² | - |
| 1777900143 | 18.33° C | 86% | 1013.3 hPa | 0 mm | - | 175 W/m² | - |
| 1777899603 | 18.89° C | 83% | 1013.4 hPa | 0 mm | - | 89 W/m² | - |
| 1777899243 | 18.89° C | 83% | 1013.1 hPa | 0 mm | - | 77 W/m² | - |
| 1777898703 | 17.78° C | 85% | 1013.3 hPa | 0 mm | - | 337 W/m² | - |
| 1777898164 | 18.33° C | 87% | 1013.3 hPa | 0 mm | - | 119 W/m² | - |
| 1777897623 | 17.78° C | 87% | 1013.6 hPa | 0 mm | - | 216 W/m² | - |
| 1777897083 | 18.33° C | 86% | 1013.5 hPa | 0 mm | - | 73 W/m² | - |
| 1777896544 | 18.33° C | 85% | 1013.7 hPa | 0 mm | - | 64 W/m² | - |
| 1777896003 | 18.33° C | 84% | 1013.5 hPa | 0 mm | - | 82 W/m² | - |
| 1777895643 | 18.33° C | 83% | 1013.6 hPa | 0 mm | - | 128 W/m² | - |
| 1777895103 | 18.33° C | 84% | 1013.7 hPa | 0 mm | - | 311 W/m² | - |
* Rain latest hour (hover to see other rain measurements)
** Current wind speed in m/s (hover to see current wind gust speed)